AerodromSadržaj METAR izveštaja
LYBEMETAR LYBE 251630Z 02012KT CAVOK 18/07 Q1022 NOSIG=
LYBTMETAR LYBT 251630Z 34010KT CAVOK 17/07 Q1022 NOSIG=
LYKVMETAR LYKV 251630Z 34005KT 290V090 9999 BKN045 17/07 Q1023 NOSIG=
LYNIMETAR LYNI 251630Z VRB13KT 9999 FEW050 18/05 Q1021 NOSIG=
LYVRMETAR LYVR 251630Z AUTO 28007KT 9999 FEW047/// BKN073/// OVC094/// 15/11 Q1021=
LYUZMETAR LYUZ 251630Z 31006G18KT 9999 -TSRA FEW017CB SCT020 11/05 Q1024=
LYPGMETAR LYPG 251630Z 36011KT 9999 FEW040 24/M01 Q1019 NOSIG=
LYTVMETAR LYTV 251630Z 19003KT 140V240 CAVOK 23/07 Q1019 NOSIG=

Podaci učitani u: 2020-05-25 16:36:50 UTC

METAR, TAF, AIRMET, GAMET, SIGMET

Važna napomena: MET infоrmаciје nа оvim web strаnicаmа imајu infоrmаtivni kаrаktеr, nаmenjene su isključivo vаzduhоplоvnim kоrisnicima, nе smејu sе kоristiti zа bilо kоје kоmеrciјаlnе svrhе, i nе zаmеnjuјu dоkumеntаciјu zа lеt.